GMAD METAR and TAF | Updated Today

GMAD METAR

Al Massira Airport

Observation time: 31 min. ago

GMAD 060800Z 08006KT 360V100 CAVOK 07/04 Q1023 NOSIG

Need help? Read our tutorial on how to read METARs or read the parsed version below.

Al Massira Airport (GMAD) METAR

  • Weather conditions on Mon, 06 Dec 2021 08:00:00 +0000 (31 min. ago):
  • Present conditions: Dry
  • Clouds: Clear skies
  • Visibility: Greater than 10 km
  • Wind: 80 degrees at 6 knots
  • Temperature: 7 celsius
  • Dew point: 4 celsius
  • Pressure: 1023 millibars
  • Remarks: None


Useful to know...

GMAD TAF

Al Massira Airport

TAF GMAD 060500Z 0606/0712 06004KT 6000 SCT010 BECMG 0612/0614 26012KT CAVOK
Observation time: 3:31 hr. ago
Need help? Read our tutorial on how to read TAFs or read the parsed version below.

Parsed version of TAF for Al Massira Airport (GMAD)

  • From 06 December at 06:00 UTC, to day 07 of the month at 12:00 UTC
  • Clouds: Scattered at 305 meters
  • Visibility: 6000 meters
  • Wind: 60 degrees at 4
  • Expected to arise soon, from 06 December at 12:00 UTC, to day 06 of the month at 14:00 UTC
  • Visibility: Greater than 10 km
  • Wind: 260 degrees at 12

Airports near GMAD